createdAt,value
2018-06-16T00:00:08.625Z,2.90
2018-06-16T00:01:08.598Z,3.00
2018-06-16T00:02:08.579Z,2.80
2018-06-16T00:03:08.554Z,3.00
2018-06-16T00:04:08.527Z,3.20
2018-06-16T00:05:08.504Z,2.90
2018-06-16T00:06:08.480Z,3.10
2018-06-16T00:07:08.463Z,3.20
2018-06-16T00:08:08.431Z,3.20
2018-06-16T00:09:08.410Z,3.20
2018-06-16T00:10:08.385Z,3.10
2018-06-16T00:11:08.364Z,3.40
2018-06-16T00:12:08.339Z,2.90
2018-06-16T00:13:08.314Z,3.30
2018-06-16T00:14:08.292Z,3.10
2018-06-16T00:15:08.272Z,3.70
2018-06-16T00:16:08.245Z,2.70
2018-06-16T00:17:08.218Z,3.00
2018-06-16T00:18:08.196Z,3.10
2018-06-16T00:19:08.172Z,3.80
2018-06-16T00:20:08.148Z,3.20
2018-06-16T00:21:08.122Z,3.40
2018-06-16T00:22:08.100Z,3.40
2018-06-16T00:23:08.076Z,2.90
2018-06-16T00:24:08.053Z,3.50
2018-06-16T00:25:08.028Z,3.00
2018-06-16T00:26:08.009Z,3.50
2018-06-16T00:27:07.981Z,3.20
2018-06-16T00:28:07.957Z,3.40
2018-06-16T00:29:07.932Z,3.30
2018-06-16T00:30:07.909Z,3.70
2018-06-16T00:31:07.888Z,3.30
2018-06-16T00:32:08.063Z,3.30
2018-06-16T00:33:07.838Z,2.90
2018-06-16T00:34:07.813Z,3.50
2018-06-16T00:35:07.790Z,3.40
2018-06-16T00:36:07.764Z,3.20
2018-06-16T00:37:07.740Z,3.30
2018-06-16T00:38:07.717Z,3.50
2018-06-16T00:39:07.693Z,3.40
2018-06-16T00:40:07.673Z,3.50
2018-06-16T00:41:07.645Z,3.10
2018-06-16T00:42:07.621Z,3.50
2018-06-16T00:43:07.600Z,3.30
2018-06-16T00:44:07.577Z,3.50
2018-06-16T00:45:07.548Z,2.90
2018-06-16T00:46:07.526Z,3.30
2018-06-16T00:47:07.502Z,3.50
2018-06-16T00:48:07.481Z,3.50
2018-06-16T00:49:07.453Z,3.20
2018-06-16T00:50:07.429Z,3.40
2018-06-16T00:51:07.405Z,3.10
2018-06-16T00:52:07.383Z,3.10
2018-06-16T00:53:07.359Z,3.00
2018-06-16T00:54:07.333Z,3.10
2018-06-16T00:55:07.314Z,3.40
2018-06-16T00:56:07.286Z,2.70
2018-06-16T00:57:07.261Z,3.20
2018-06-16T00:58:07.237Z,3.50
2018-06-16T00:59:07.213Z,2.90
2018-06-16T01:00:07.189Z,3.20
2018-06-16T01:01:07.169Z,3.00
2018-06-16T01:02:07.141Z,3.10
2018-06-16T01:03:07.117Z,3.10
2018-06-16T01:04:07.093Z,2.90
2018-06-16T01:05:07.068Z,3.30
2018-06-16T01:06:07.044Z,3.00
2018-06-16T01:07:07.022Z,3.40
2018-06-16T01:08:06.997Z,3.40
2018-06-16T01:09:06.972Z,3.00
2018-06-16T01:10:06.948Z,3.20
2018-06-16T01:11:06.928Z,3.80
2018-06-16T01:12:06.900Z,3.50
2018-06-16T01:13:06.881Z,3.40
2018-06-16T01:14:06.853Z,3.30
2018-06-16T01:15:06.828Z,4.90
2018-06-16T01:16:06.806Z,4.30
2018-06-16T01:17:06.779Z,4.40
2018-06-16T01:18:06.761Z,6.90
2018-06-16T01:19:06.732Z,6.20
2018-06-16T01:20:06.709Z,5.70
2018-06-16T01:21:06.684Z,6.10
2018-06-16T01:22:06.659Z,5.10
2018-06-16T01:23:06.635Z,5.70
2018-06-16T01:24:06.616Z,5.00
2018-06-16T01:25:06.593Z,4.20
2018-06-16T01:26:06.563Z,4.00
2018-06-16T01:27:06.540Z,4.20
2018-06-16T01:28:06.517Z,3.90
2018-06-16T01:29:06.490Z,3.90
2018-06-16T01:30:06.467Z,3.80
2018-06-16T01:31:06.442Z,4.00
2018-06-16T01:32:06.419Z,3.50
2018-06-16T01:33:06.394Z,4.20
2018-06-16T01:34:06.377Z,3.90
2018-06-16T01:35:06.356Z,4.00
2018-06-16T01:36:06.327Z,3.80
2018-06-16T01:37:06.300Z,3.70
2018-06-16T01:38:06.274Z,4.00
2018-06-16T01:39:06.250Z,4.70
2018-06-16T01:40:06.248Z,4.40
2018-06-16T01:41:06.204Z,3.90
2018-06-16T01:42:06.177Z,3.90
2018-06-16T01:43:06.154Z,4.20
2018-06-16T01:44:06.129Z,4.70
2018-06-16T01:45:06.107Z,3.90
2018-06-16T01:46:06.082Z,3.80
2018-06-16T01:47:06.057Z,3.80
2018-06-16T01:48:06.035Z,3.90
2018-06-16T01:49:06.010Z,3.80
2018-06-16T01:50:05.990Z,3.90
2018-06-16T01:51:05.963Z,3.80
2018-06-16T01:52:05.944Z,4.00
2018-06-16T01:53:05.914Z,4.00
2018-06-16T01:54:05.895Z,3.50
2018-06-16T01:55:05.866Z,4.00
2018-06-16T01:56:05.842Z,3.30
2018-06-16T01:57:05.822Z,2.90
2018-06-16T01:58:05.792Z,2.90
2018-06-16T01:59:05.769Z,3.30
2018-06-16T02:00:05.746Z,3.40
2018-06-16T02:01:05.721Z,3.10
2018-06-16T02:02:05.697Z,3.50
2018-06-16T02:03:05.674Z,3.80
2018-06-16T02:04:05.649Z,3.50
2018-06-16T02:05:05.625Z,3.70
2018-06-16T02:06:05.606Z,3.40
2018-06-16T02:07:05.577Z,3.40
2018-06-16T02:08:05.553Z,3.40
2018-06-16T02:09:05.527Z,3.20
2018-06-16T02:10:05.504Z,3.60
2018-06-16T02:11:05.479Z,3.20
2018-06-16T02:12:05.458Z,3.50
2018-06-16T02:13:05.432Z,3.80
2018-06-16T02:14:05.408Z,3.50
2018-06-16T02:15:05.384Z,3.30
2018-06-16T02:16:05.364Z,3.80
2018-06-16T02:17:05.340Z,3.20
2018-06-16T02:18:05.313Z,3.80
2018-06-16T02:19:05.287Z,3.50
2018-06-16T02:20:05.264Z,3.20
2018-06-16T02:21:05.240Z,3.20
2018-06-16T02:22:05.215Z,3.40
2018-06-16T02:23:05.192Z,3.20
2018-06-16T02:24:05.168Z,3.90
2018-06-16T02:25:05.146Z,5.10
2018-06-16T02:26:05.120Z,5.50
2018-06-16T02:27:05.095Z,4.60
2018-06-16T02:28:05.073Z,4.10
2018-06-16T02:29:05.046Z,3.80
2018-06-16T02:30:05.028Z,4.90
2018-06-16T02:31:04.999Z,4.10
2018-06-16T02:32:04.978Z,4.60
2018-06-16T02:33:04.950Z,3.90
2018-06-16T02:34:04.938Z,3.90
2018-06-16T02:35:04.908Z,3.60
2018-06-16T02:36:04.882Z,3.70
2018-06-16T02:37:04.858Z,3.60
2018-06-16T02:38:04.831Z,3.50
2018-06-16T02:39:04.805Z,3.50
2018-06-16T02:40:04.785Z,3.60
2018-06-16T02:41:04.757Z,3.70
2018-06-16T02:42:04.733Z,4.10
2018-06-16T02:43:04.713Z,3.60
2018-06-16T02:44:04.686Z,3.80
2018-06-16T02:45:04.664Z,3.90
2018-06-16T02:46:04.640Z,4.20
2018-06-16T02:47:04.614Z,4.20
2018-06-16T02:48:04.589Z,4.30
2018-06-16T02:49:04.564Z,4.20
2018-06-16T02:50:04.542Z,4.00
2018-06-16T02:51:04.517Z,3.80
2018-06-16T02:52:04.496Z,4.50
2018-06-16T02:53:04.468Z,4.50
2018-06-16T02:54:04.444Z,4.20
2018-06-16T02:55:04.423Z,4.20
2018-06-16T02:56:04.397Z,4.50
2018-06-16T02:57:04.371Z,4.50
2018-06-16T02:58:04.350Z,4.30
2018-06-16T02:59:04.323Z,4.00
2018-06-16T03:00:04.301Z,3.60
2018-06-16T03:01:04.275Z,3.60
2018-06-16T03:02:04.250Z,3.60
2018-06-16T03:03:04.227Z,3.60
2018-06-16T03:04:04.204Z,3.90
2018-06-16T03:05:04.178Z,3.60
2018-06-16T03:06:04.154Z,4.20
2018-06-16T03:07:04.131Z,6.10
2018-06-16T03:08:04.105Z,8.10
2018-06-16T03:09:04.081Z,9.80
2018-06-16T03:10:04.058Z,7.20
2018-06-16T03:11:04.036Z,5.40
2018-06-16T03:12:04.009Z,5.00
2018-06-16T03:13:03.984Z,4.40
2018-06-16T03:14:03.961Z,4.60
2018-06-16T03:15:03.940Z,4.20
2018-06-16T03:16:03.913Z,4.30
2018-06-16T03:17:03.888Z,4.50
2018-06-16T03:18:03.863Z,4.60
2018-06-16T03:19:03.843Z,3.90
2018-06-16T03:20:03.822Z,4.00
2018-06-16T03:21:03.794Z,3.80
2018-06-16T03:22:03.769Z,3.70
2018-06-16T03:23:03.744Z,4.00
2018-06-16T03:24:03.719Z,4.30
2018-06-16T03:25:03.694Z,3.70
2018-06-16T03:26:03.670Z,4.20
2018-06-16T03:27:03.647Z,3.80
2018-06-16T03:28:03.625Z,3.60
2018-06-16T03:29:03.597Z,4.10
2018-06-16T03:30:03.576Z,4.10
2018-06-16T03:31:03.548Z,4.50
2018-06-16T03:32:03.525Z,3.80
2018-06-16T03:33:03.502Z,4.40
2018-06-16T03:34:03.476Z,4.30
2018-06-16T03:35:03.466Z,4.00
2018-06-16T03:36:03.429Z,4.00
2018-06-16T03:37:03.402Z,4.20
2018-06-16T03:38:03.379Z,3.80
2018-06-16T03:39:03.359Z,3.50
2018-06-16T03:40:03.333Z,4.30
2018-06-16T03:41:03.307Z,3.60
2018-06-16T03:42:03.283Z,4.10
2018-06-16T03:43:03.259Z,3.80
2018-06-16T03:44:03.235Z,3.60
2018-06-16T03:45:03.213Z,3.90
2018-06-16T03:46:03.186Z,3.30
2018-06-16T03:47:03.163Z,4.20
2018-06-16T03:48:03.143Z,4.20
2018-06-16T03:49:03.113Z,4.10
2018-06-16T03:50:03.088Z,3.90
2018-06-16T03:51:03.070Z,4.40
2018-06-16T03:52:03.042Z,4.10
2018-06-16T03:53:03.016Z,4.20
2018-06-16T03:54:02.993Z,4.00
2018-06-16T03:55:02.969Z,3.90
2018-06-16T03:56:02.948Z,3.70
2018-06-16T03:57:02.921Z,4.10
2018-06-16T03:58:02.903Z,4.10
2018-06-16T03:59:02.873Z,4.30
2018-06-16T04:00:02.856Z,4.30
2018-06-16T04:01:02.827Z,4.30
2018-06-16T04:02:02.802Z,4.30
2018-06-16T04:03:02.780Z,4.50
2018-06-16T04:04:02.754Z,3.80
2018-06-16T04:05:02.733Z,4.50
2018-06-16T04:06:02.705Z,4.30
2018-06-16T04:07:02.682Z,4.00
2018-06-16T04:08:02.658Z,4.10
2018-06-16T04:09:02.632Z,4.40
2018-06-16T04:10:02.610Z,4.70
2018-06-16T04:11:02.586Z,4.20
2018-06-16T04:12:02.564Z,3.80
2018-06-16T04:13:02.538Z,3.60
2018-06-16T04:14:02.517Z,4.10
2018-06-16T04:15:02.496Z,4.20
2018-06-16T04:16:02.466Z,5.10
2018-06-16T04:17:02.442Z,5.50
2018-06-16T04:18:02.419Z,4.70
2018-06-16T04:19:02.393Z,3.80
2018-06-16T04:20:02.376Z,4.40
2018-06-16T04:21:02.352Z,3.60
2018-06-16T04:22:02.328Z,4.90
2018-06-16T04:23:02.302Z,4.20
2018-06-16T04:24:02.280Z,4.30
2018-06-16T04:25:02.252Z,4.60
2018-06-16T04:26:02.233Z,4.60
2018-06-16T04:27:02.211Z,4.50
2018-06-16T04:28:02.188Z,4.50
2018-06-16T04:29:02.157Z,4.50
2018-06-16T04:30:02.133Z,4.30
2018-06-16T04:31:02.112Z,4.50
2018-06-16T04:32:02.094Z,4.80
2018-06-16T04:33:02.073Z,4.40
2018-06-16T04:34:02.041Z,4.00
2018-06-16T04:35:02.019Z,4.00
2018-06-16T04:36:01.995Z,4.20
2018-06-16T04:37:01.972Z,4.30
2018-06-16T04:38:01.950Z,4.30
2018-06-16T04:39:01.926Z,4.00
2018-06-16T04:40:01.920Z,4.00
2018-06-16T04:41:01.881Z,4.00
2018-06-16T04:42:01.857Z,4.40
2018-06-16T04:43:01.835Z,4.50
2018-06-16T04:44:01.812Z,4.60
2018-06-16T04:45:01.789Z,4.30
2018-06-16T04:46:01.768Z,4.20
2018-06-16T04:47:01.947Z,4.50
2018-06-16T04:48:01.925Z,4.40
2018-06-16T04:49:01.903Z,4.40
2018-06-16T04:50:01.681Z,4.50
2018-06-16T04:51:01.665Z,4.80
2018-06-16T04:52:01.634Z,4.10
2018-06-16T04:53:01.611Z,3.80
2018-06-16T04:54:04.413Z,4.20
2018-06-16T04:55:01.566Z,4.60
2018-06-16T04:56:01.549Z,5.10
2018-06-16T04:57:01.578Z,9.20
2018-06-16T04:58:01.501Z,15.00
2018-06-16T04:59:01.480Z,14.60
2018-06-16T05:00:01.458Z,8.30
2018-06-16T05:01:01.439Z,5.60
2018-06-16T05:02:01.413Z,6.30
2018-06-16T05:03:01.394Z,5.80
2018-06-16T05:04:01.375Z,6.00
2018-06-16T05:05:01.346Z,5.20
2018-06-16T05:06:01.325Z,5.80
2018-06-16T05:07:01.303Z,5.60
2018-06-16T05:08:01.280Z,5.90
2018-06-16T05:09:01.260Z,5.60
2018-06-16T05:10:01.237Z,5.40
2018-06-16T05:11:01.214Z,5.40
2018-06-16T05:12:01.195Z,5.80
2018-06-16T05:13:01.170Z,5.00
2018-06-16T05:14:01.148Z,5.50
2018-06-16T05:15:01.129Z,5.20
2018-06-16T05:16:01.105Z,5.10
2018-06-16T05:17:01.187Z,5.10
2018-06-16T05:18:01.061Z,5.00
2018-06-16T05:19:01.037Z,5.40
2018-06-16T05:20:01.022Z,4.70
2018-06-16T05:21:00.993Z,5.40
2018-06-16T05:22:00.973Z,5.00
2018-06-16T05:23:00.950Z,5.00
2018-06-16T05:24:00.926Z,5.20
2018-06-16T05:25:00.905Z,5.20
2018-06-16T05:26:00.884Z,5.70
2018-06-16T05:27:00.865Z,5.50
2018-06-16T05:28:00.841Z,5.70
2018-06-16T05:29:00.818Z,5.30
2018-06-16T05:30:00.799Z,5.60
2018-06-16T05:31:00.777Z,5.30
2018-06-16T05:32:00.758Z,4.90
2018-06-16T05:33:00.943Z,5.60
2018-06-16T05:34:00.712Z,5.60
2018-06-16T05:35:00.689Z,5.50
2018-06-16T05:36:00.670Z,5.40
2018-06-16T05:37:00.649Z,5.20
2018-06-16T05:38:00.628Z,5.40
2018-06-16T05:39:00.607Z,4.80
2018-06-16T05:40:00.586Z,5.60
2018-06-16T05:41:00.563Z,5.50
2018-06-16T05:42:00.542Z,5.30
2018-06-16T05:43:00.522Z,5.80
2018-06-16T05:44:00.501Z,5.80
2018-06-16T05:45:00.487Z,6.70
2018-06-16T05:46:00.464Z,7.00
2018-06-16T05:47:00.437Z,6.90
2018-06-16T05:48:00.424Z,6.70
2018-06-16T05:49:00.394Z,7.20
2018-06-16T05:50:00.376Z,6.10
2018-06-16T05:51:00.353Z,6.60
2018-06-16T05:52:00.332Z,6.30
2018-06-16T05:53:00.309Z,6.30
2018-06-16T05:54:00.302Z,6.50
2018-06-16T05:55:00.268Z,5.80
2018-06-16T05:56:00.247Z,6.30
2018-06-16T05:57:00.224Z,6.80
2018-06-16T05:58:00.204Z,6.00
2018-06-16T05:59:00.184Z,6.10
2018-06-16T06:00:00.164Z,6.50
2018-06-16T06:01:00.145Z,6.00
2018-06-16T06:02:00.125Z,6.00
2018-06-16T06:03:00.099Z,6.00
2018-06-16T06:04:00.078Z,6.10
2018-06-16T06:05:00.058Z,6.30
2018-06-16T06:06:00.037Z,5.70
2018-06-16T06:07:00.015Z,6.20
2018-06-16T06:07:59.994Z,6.20
2018-06-16T06:08:59.972Z,5.70
2018-06-16T06:09:59.952Z,5.90
2018-06-16T06:10:59.931Z,6.00
2018-06-16T06:11:59.909Z,6.80
2018-06-16T06:12:59.911Z,8.10
2018-06-16T06:13:59.868Z,8.70
2018-06-16T06:14:59.846Z,9.10
2018-06-16T06:15:59.828Z,9.60
2018-06-16T06:16:59.809Z,10.50
2018-06-16T06:17:59.783Z,12.70
2018-06-16T06:18:59.767Z,9.30
2018-06-16T06:19:59.746Z,9.70
2018-06-16T06:20:59.722Z,8.90
2018-06-16T06:21:59.706Z,8.20
2018-06-16T06:22:59.684Z,8.10
2018-06-16T06:23:59.662Z,7.30
2018-06-16T06:24:59.644Z,7.20
2018-06-16T06:25:59.622Z,6.80
2018-06-16T06:26:59.601Z,7.90
2018-06-16T06:27:59.579Z,6.80
2018-06-16T06:28:59.558Z,7.40
2018-06-16T06:29:59.540Z,6.90
2018-06-16T06:30:59.519Z,7.40
2018-06-16T06:31:59.542Z,7.30
2018-06-16T06:32:59.486Z,7.30
2018-06-16T06:33:59.458Z,7.80
2018-06-16T06:34:59.439Z,8.20
2018-06-16T06:35:59.419Z,7.40
2018-06-16T06:36:59.396Z,7.30
2018-06-16T06:37:59.378Z,7.40
2018-06-16T06:38:59.360Z,8.00
2018-06-16T06:39:59.343Z,6.90
2018-06-16T06:40:59.320Z,7.70
2018-06-16T06:41:59.299Z,6.90
2018-06-16T06:42:59.278Z,7.50
2018-06-16T06:43:59.268Z,6.90
2018-06-16T06:44:59.240Z,7.60
2018-06-16T06:45:59.219Z,7.70
2018-06-16T06:46:59.204Z,8.30
2018-06-16T06:47:59.184Z,8.40
2018-06-16T06:48:59.160Z,11.80
2018-06-16T06:49:59.142Z,14.10
2018-06-16T06:50:59.124Z,17.10
2018-06-16T06:51:59.103Z,17.40
2018-06-16T06:52:59.083Z,15.60
2018-06-16T06:53:59.064Z,12.60
2018-06-16T06:54:59.045Z,9.10
2018-06-16T06:55:59.031Z,8.70
2018-06-16T06:56:59.007Z,8.10
2018-06-16T06:57:59.051Z,8.40
2018-06-16T06:58:58.967Z,8.70
2018-06-16T06:59:58.948Z,8.80
2018-06-16T07:00:58.929Z,7.90
2018-06-16T07:01:58.908Z,8.10
2018-06-16T07:02:58.890Z,7.50
2018-06-16T07:03:58.896Z,8.10
2018-06-16T07:04:58.851Z,7.80
2018-06-16T07:05:58.841Z,7.30
2018-06-16T07:06:58.815Z,7.80
2018-06-16T07:07:58.796Z,7.80
2018-06-16T07:08:58.776Z,7.30
2018-06-16T07:09:58.760Z,7.00
2018-06-16T07:10:58.762Z,7.90
2018-06-16T07:11:58.927Z,8.00
2018-06-16T07:12:58.902Z,8.50
2018-06-16T07:13:58.886Z,7.90
2018-06-16T07:14:58.664Z,8.10
2018-06-16T07:15:58.646Z,7.90
2018-06-16T07:16:58.828Z,7.60
2018-06-16T07:17:58.808Z,8.10
2018-06-16T07:18:58.792Z,8.60
2018-06-16T07:19:58.773Z,8.20
2018-06-16T07:20:58.757Z,8.50
2018-06-16T07:21:58.737Z,8.90
2018-06-16T07:22:58.719Z,8.60
2018-06-16T07:23:58.500Z,8.70
2018-06-16T07:24:58.684Z,8.20
2018-06-16T07:25:58.464Z,8.00
2018-06-16T07:26:58.651Z,8.30
2018-06-16T07:27:58.635Z,8.50
2018-06-16T07:28:58.617Z,7.90
2018-06-16T07:29:58.398Z,7.60
2018-06-16T07:30:58.377Z,7.80
2018-06-16T07:31:58.360Z,7.90
2018-06-16T07:32:58.346Z,7.90
2018-06-16T07:33:58.329Z,7.90
2018-06-16T07:34:58.317Z,8.10
2018-06-16T07:35:58.293Z,8.50
2018-06-16T07:36:58.276Z,8.20
2018-06-16T07:37:58.259Z,8.50
2018-06-16T07:38:58.336Z,8.60
2018-06-16T07:39:58.231Z,8.10
2018-06-16T07:40:58.211Z,7.80
2018-06-16T07:41:58.195Z,7.90
2018-06-16T07:42:58.177Z,8.10
2018-06-16T07:43:58.365Z,8.20
2018-06-16T07:44:58.346Z,7.70
2018-06-16T07:45:58.533Z,8.10
2018-06-16T07:46:58.518Z,7.60
2018-06-16T07:47:58.305Z,8.50
2018-06-16T07:48:58.163Z,8.30
2018-06-16T07:49:58.065Z,7.80
2018-06-16T07:50:58.250Z,7.80
2018-06-16T07:51:58.644Z,7.00
2018-06-16T07:52:58.219Z,7.70
2018-06-16T07:53:58.004Z,8.30
2018-06-16T07:54:57.986Z,8.20
2018-06-16T07:55:57.971Z,7.60
2018-06-16T07:56:57.953Z,7.70
2018-06-16T07:57:57.941Z,7.90
2018-06-16T07:58:57.928Z,8.00
2018-06-16T07:59:57.908Z,8.00
2018-06-16T08:00:57.900Z,8.20
2018-06-16T08:01:57.876Z,7.40
2018-06-16T08:02:57.861Z,7.80
2018-06-16T08:03:57.848Z,7.80
2018-06-16T08:04:57.828Z,8.00
2018-06-16T08:05:57.813Z,7.90
2018-06-16T08:06:57.798Z,7.60
2018-06-16T08:07:57.783Z,7.70
2018-06-16T08:08:57.774Z,7.60
2018-06-16T08:09:57.749Z,7.90
2018-06-16T08:10:57.734Z,7.70
2018-06-16T08:11:57.716Z,7.70
2018-06-16T08:12:57.700Z,7.80
2018-06-16T08:13:57.684Z,8.20
2018-06-16T08:14:57.669Z,7.70
2018-06-16T08:15:57.652Z,7.70
2018-06-16T08:16:57.636Z,7.30
2018-06-16T08:17:57.673Z,7.70
2018-06-16T08:18:57.605Z,7.10
2018-06-16T08:19:57.589Z,7.60
2018-06-16T08:20:57.572Z,8.10
2018-06-16T08:21:57.564Z,7.70
2018-06-16T08:22:57.548Z,7.60
2018-06-16T08:23:57.527Z,8.10
2018-06-16T08:24:57.516Z,7.70
2018-06-16T08:25:57.495Z,7.20
2018-06-16T08:26:57.481Z,7.60
2018-06-16T08:27:57.465Z,8.10
2018-06-16T08:28:57.449Z,8.80
2018-06-16T08:29:57.436Z,7.70
2018-06-16T08:30:57.418Z,7.90
2018-06-16T08:31:57.404Z,7.40
2018-06-16T08:32:57.388Z,7.90
2018-06-16T08:33:57.372Z,7.50
2018-06-16T08:34:57.360Z,7.40
2018-06-16T08:35:57.557Z,7.00
2018-06-16T08:36:57.329Z,7.30
2018-06-16T08:37:57.317Z,7.90
2018-06-16T08:38:57.501Z,7.90
2018-06-16T08:39:57.285Z,7.40
2018-06-16T08:40:57.270Z,7.20
2018-06-16T08:41:57.255Z,7.20
2018-06-16T08:42:57.241Z,7.20
2018-06-16T08:43:57.225Z,7.60
2018-06-16T08:44:57.214Z,7.90
2018-06-16T08:45:57.196Z,8.00
2018-06-16T08:46:57.184Z,7.40
2018-06-16T08:47:57.166Z,7.40
2018-06-16T08:48:57.151Z,7.80
2018-06-16T08:49:57.136Z,7.30
2018-06-16T08:50:57.121Z,6.80
2018-06-16T08:51:57.106Z,7.40
2018-06-16T08:52:57.090Z,7.10
2018-06-16T08:53:57.074Z,7.40
2018-06-16T08:54:57.062Z,7.70
2018-06-16T08:55:57.044Z,7.60
2018-06-16T08:56:57.229Z,7.40
2018-06-16T08:57:57.014Z,7.50
2018-06-16T08:58:56.996Z,7.50
2018-06-16T08:59:56.987Z,7.10
2018-06-16T09:00:56.965Z,6.70
2018-06-16T09:01:56.946Z,7.30
2018-06-16T09:02:56.932Z,7.20
2018-06-16T09:03:56.918Z,6.80
2018-06-16T09:04:56.898Z,7.30
2018-06-16T09:05:56.883Z,7.50
2018-06-16T09:06:56.867Z,7.20
2018-06-16T09:07:56.851Z,7.00
2018-06-16T09:08:56.834Z,7.10
2018-06-16T09:09:56.817Z,7.70
2018-06-16T09:11:39.166Z,6.50
2018-06-16T09:12:38.944Z,7.00
2018-06-16T09:13:38.926Z,7.10
2018-06-16T09:14:39.416Z,6.60
2018-06-16T09:15:39.095Z,6.40
2018-06-16T09:16:39.077Z,6.60
2018-06-16T09:17:39.062Z,6.00
2018-06-16T09:20:03.361Z,6.00
2018-06-16T09:21:03.342Z,6.00
2018-06-16T09:22:03.122Z,5.50
2018-06-16T09:23:03.308Z,5.90
2018-06-16T09:24:05.911Z,6.30
2018-06-16T09:25:03.276Z,5.50
2018-06-16T09:26:03.055Z,6.00
2018-06-16T09:27:03.236Z,6.10
2018-06-16T09:28:03.292Z,6.30
2018-06-16T09:29:02.997Z,6.20
2018-06-16T09:30:03.186Z,6.10
2018-06-16T09:31:45.329Z,5.80
2018-06-16T09:32:45.101Z,5.80
2018-06-16T09:33:45.081Z,5.90
2018-06-16T09:34:45.263Z,5.80
2018-06-16T09:35:45.044Z,6.10
2018-06-16T09:36:45.050Z,6.20
2018-06-16T09:37:45.010Z,6.40
2018-06-16T09:38:44.991Z,5.80
2018-06-16T09:39:44.971Z,5.90
2018-06-16T09:40:44.957Z,6.20
2018-06-16T09:41:44.936Z,6.20
2018-06-16T09:42:44.912Z,5.70
2018-06-16T09:43:44.897Z,6.10
2018-06-16T09:44:45.077Z,5.50
2018-06-16T09:45:44.858Z,6.20
2018-06-16T09:46:45.049Z,6.00
2018-06-16T09:47:45.025Z,5.80
2018-06-16T09:48:44.803Z,5.60
2018-06-16T09:49:44.785Z,5.80
2018-06-16T09:50:44.768Z,5.70
2018-06-16T09:51:44.750Z,5.50
2018-06-16T09:52:44.935Z,5.40
2018-06-16T09:53:44.917Z,5.40
2018-06-16T09:54:44.899Z,5.30
2018-06-16T09:55:44.681Z,5.30
2018-06-16T09:56:44.663Z,5.60
2018-06-16T09:57:44.848Z,5.30
2018-06-16T09:58:44.630Z,5.60
2018-06-16T09:59:44.614Z,5.50
2018-06-16T10:00:44.597Z,4.70
2018-06-16T10:02:26.941Z,5.80
2018-06-16T10:03:26.763Z,5.60
2018-06-16T10:04:26.907Z,5.60
2018-06-16T10:05:26.689Z,5.60
2018-06-16T10:06:26.673Z,5.50
2018-06-16T10:07:26.668Z,5.50
2018-06-16T10:08:26.641Z,5.50
2018-06-16T10:09:26.887Z,5.20
2018-06-16T10:10:26.613Z,5.30
2018-06-16T10:11:26.795Z,5.30
2018-06-16T10:12:26.781Z,5.20
2018-06-16T10:13:26.764Z,5.70
2018-06-16T10:14:26.752Z,5.40
2018-06-16T10:15:26.532Z,5.30
2018-06-16T10:16:26.515Z,4.80
2018-06-16T10:17:26.702Z,5.00
2018-06-16T10:18:26.488Z,5.00
2018-06-16T10:19:26.671Z,5.20
2018-06-16T10:20:26.455Z,5.40
2018-06-16T10:21:26.439Z,5.20
2018-06-16T10:22:26.424Z,5.00
2018-06-16T10:23:26.412Z,5.10
2018-06-16T10:24:26.393Z,5.30
2018-06-16T10:25:26.386Z,4.90
2018-06-16T10:26:26.363Z,5.40
2018-06-16T10:27:26.353Z,5.10
2018-06-16T10:28:26.333Z,5.30
2018-06-16T10:29:26.318Z,5.20
2018-06-16T10:30:26.303Z,5.50
2018-06-16T10:31:26.289Z,5.60
2018-06-16T10:32:26.275Z,5.10
2018-06-16T10:33:26.257Z,5.50
2018-06-16T10:34:26.241Z,5.00
2018-06-16T10:35:26.225Z,4.90
2018-06-16T10:36:26.226Z,5.30
2018-06-16T10:37:26.198Z,5.50
2018-06-16T10:38:26.178Z,6.50
2018-06-16T10:39:26.160Z,5.70
2018-06-16T10:40:26.146Z,5.60
2018-06-16T10:41:26.131Z,5.80
2018-06-16T10:42:26.114Z,5.00
2018-06-16T10:43:26.097Z,5.40
2018-06-16T10:44:26.282Z,5.40
2018-06-16T10:45:26.068Z,5.60
2018-06-16T10:46:26.056Z,5.90
2018-06-16T10:47:26.031Z,5.40
2018-06-16T10:48:26.016Z,5.70
2018-06-16T10:49:25.997Z,6.00
2018-06-16T10:50:25.980Z,5.90
2018-06-16T10:51:25.963Z,6.00
2018-06-16T10:52:25.945Z,5.50
2018-06-16T10:53:25.929Z,5.80
2018-06-16T10:55:25.892Z,6.20
2018-06-16T10:56:26.077Z,6.00
2018-06-16T10:57:25.857Z,5.80
2018-06-16T10:58:25.839Z,6.20
2018-06-16T10:59:25.822Z,5.70
2018-06-16T11:00:25.852Z,6.20
2018-06-16T11:01:25.784Z,5.90
2018-06-16T11:02:25.967Z,6.70
2018-06-16T11:03:28.974Z,6.20
2018-06-16T11:04:25.930Z,7.50
2018-06-16T11:05:29.547Z,10.30
2018-06-16T11:06:25.892Z,10.70
2018-06-16T11:07:25.873Z,11.90
2018-06-16T11:08:25.854Z,10.10
2018-06-16T11:09:25.833Z,10.50
2018-06-16T11:10:25.815Z,11.10
2018-06-16T11:11:25.592Z,10.70
2018-06-16T11:12:25.774Z,11.20
2018-06-16T11:13:25.758Z,12.60
2018-06-16T11:14:25.733Z,12.80
2018-06-16T11:15:25.717Z,10.20
2018-06-16T11:16:25.693Z,10.10
2018-06-16T11:17:25.672Z,10.00
2018-06-16T11:18:25.453Z,10.80
2018-06-16T11:19:25.428Z,9.50
2018-06-16T11:20:25.409Z,10.40
2018-06-16T11:21:25.386Z,9.80
2018-06-16T11:22:25.367Z,8.40
2018-06-16T11:23:25.342Z,9.80
2018-06-16T11:24:28.353Z,11.30
2018-06-16T11:25:25.504Z,10.60
2018-06-16T11:26:25.888Z,10.60
2018-06-16T11:27:25.461Z,11.00
2018-06-16T11:28:25.237Z,10.10
2018-06-16T11:29:28.041Z,9.80
2018-06-16T11:30:25.427Z,9.60
2018-06-16T11:31:25.174Z,9.70
2018-06-16T11:32:25.153Z,9.60
2018-06-16T11:33:25.133Z,10.00
2018-06-16T11:34:25.111Z,10.20
2018-06-16T11:35:25.089Z,10.10
2018-06-16T11:36:25.068Z,10.50
2018-06-16T11:37:25.050Z,10.30
2018-06-16T11:38:25.025Z,11.10
2018-06-16T11:39:25.007Z,10.90
2018-06-16T11:40:24.986Z,10.20
2018-06-16T11:41:24.958Z,8.80
2018-06-16T11:42:24.938Z,9.80
2018-06-16T11:43:24.915Z,10.30
2018-06-16T11:44:24.896Z,10.50
2018-06-16T11:45:24.873Z,11.00
2018-06-16T11:46:24.850Z,11.60
2018-06-16T11:47:24.828Z,11.60
2018-06-16T11:48:24.807Z,11.60
2018-06-16T11:49:24.785Z,14.10
2018-06-16T11:50:24.765Z,14.20
2018-06-16T11:51:24.742Z,12.40
2018-06-16T11:52:24.720Z,11.80
2018-06-16T11:53:24.698Z,11.30
2018-06-16T11:54:24.676Z,9.60
2018-06-16T11:55:24.654Z,9.50
2018-06-16T11:56:24.632Z,8.00
2018-06-16T11:57:24.608Z,7.10
2018-06-16T11:58:24.599Z,6.60
2018-06-16T11:59:24.565Z,5.30
2018-06-16T12:00:24.541Z,4.90
2018-06-16T12:01:24.536Z,4.30
2018-06-16T12:02:24.499Z,4.20
2018-06-16T12:03:24.476Z,4.30
2018-06-16T12:04:24.454Z,4.20
2018-06-16T12:05:24.433Z,4.00
2018-06-16T12:06:24.411Z,3.90
2018-06-16T12:07:24.397Z,4.00
2018-06-16T12:08:24.367Z,4.20
2018-06-16T12:09:24.345Z,3.90
2018-06-16T12:10:24.323Z,3.80
2018-06-16T12:11:24.301Z,3.90
2018-06-16T12:12:24.286Z,3.60
2018-06-16T12:13:24.257Z,3.70
2018-06-16T12:14:24.236Z,3.90
2018-06-16T12:15:24.214Z,3.80
2018-06-16T12:16:24.192Z,4.00
2018-06-16T12:17:24.170Z,3.90
2018-06-16T12:18:24.149Z,3.80
2018-06-16T12:19:24.129Z,4.20
2018-06-16T12:20:24.108Z,4.00
2018-06-16T12:21:24.085Z,4.30
2018-06-16T12:22:24.066Z,4.20
2018-06-16T12:23:24.043Z,4.40
2018-06-16T12:24:24.020Z,4.20
2018-06-16T12:25:24.000Z,4.30
2018-06-16T12:26:23.978Z,4.70
2018-06-16T12:27:23.958Z,4.80
2018-06-16T12:28:23.935Z,4.80
2018-06-16T12:29:23.915Z,4.90
2018-06-16T12:30:23.895Z,4.80
2018-06-16T12:31:23.873Z,4.40
2018-06-16T12:32:23.853Z,4.90
2018-06-16T12:33:23.832Z,4.90
2018-06-16T12:34:23.814Z,5.00
2018-06-16T12:35:23.790Z,4.50
2018-06-16T12:36:23.769Z,4.60
2018-06-16T12:37:23.750Z,5.00
2018-06-16T12:38:23.730Z,5.10
2018-06-16T12:39:23.709Z,4.80
2018-06-16T12:40:23.689Z,5.20
2018-06-16T12:41:23.669Z,5.10
2018-06-16T12:42:23.851Z,4.80
2018-06-16T12:43:23.630Z,4.90
2018-06-16T12:44:23.611Z,5.00
2018-06-16T12:45:23.590Z,4.70
2018-06-16T12:46:23.570Z,4.50
2018-06-16T12:47:23.550Z,5.00
2018-06-16T12:48:23.532Z,4.90
2018-06-16T12:49:23.514Z,4.90
2018-06-16T12:50:23.494Z,5.10
2018-06-16T12:51:23.477Z,5.00
2018-06-16T12:52:23.455Z,4.90
2018-06-16T12:53:23.437Z,4.70
2018-06-16T12:54:23.417Z,4.30
2018-06-16T12:55:23.399Z,4.40
2018-06-16T12:56:23.380Z,4.30
2018-06-16T12:57:23.392Z,4.60
2018-06-16T12:58:23.346Z,4.50
2018-06-16T12:59:23.325Z,4.00
2018-06-16T13:00:23.309Z,4.20
2018-06-16T13:01:23.289Z,4.50
2018-06-16T13:02:23.474Z,4.80
2018-06-16T13:03:23.455Z,4.80
2018-06-16T13:04:23.236Z,5.20
2018-06-16T13:05:23.423Z,5.80
2018-06-16T13:06:23.408Z,6.30
2018-06-16T13:07:23.386Z,6.00
2018-06-16T13:08:23.367Z,6.30
2018-06-16T13:09:23.353Z,6.40
2018-06-16T13:11:47.651Z,6.50
2018-06-16T13:12:47.634Z,6.50
2018-06-16T13:13:47.623Z,5.80
2018-06-16T13:14:47.400Z,6.70
2018-06-16T13:15:47.391Z,7.20
2018-06-16T13:16:47.368Z,6.90
2018-06-16T13:17:47.555Z,7.10
2018-06-16T13:18:47.539Z,7.40
2018-06-16T13:19:47.326Z,7.30
2018-06-16T13:20:47.508Z,7.30
2018-06-16T13:21:47.295Z,8.10